KTMA Airport Information

Runway Information
Runway 03 Length 3389 ft width 75 ft
Elevation 349 ft Threshold 0 ft Heading 31
Runway 21 Length 3389 ft Width 75 ft
Elevation 341 ft Threshold 0 ft Heading 211
Runway 10 Length 3805 ft width 75 ft
Elevation 351 ft Threshold 0 ft Heading 94
Runway 28 Length 3805 ft Width 75 ft
Elevation 339 ft Threshold 0 ft Heading 274
Runway 15 Length 5504 ft width 100 ft
Elevation 352 ft Threshold 0 ft Heading 149
Runway 33 Length 5504 ft Width 100 ft
Elevation 340 ft Threshold 0 ft Heading 329
Airport Frequencies
Type A/D Name VALDOSTA A Frequency 119.525 MHZ
Type AWOS Name AWOS 3 Frequency 118.525 MHZ
Type RDO Name MACON RDO Frequency 122.35 MHZ
Type UNIC Name CTAF/UNICO Frequency 122.7 MHZ
Airport Navaids
Airport Weather Information & NOTAM
ADDS - METARS form results

(0228 UTC 29 September 2021)
Data provider http://aviationweather.gov/metar/data/
 
METAR text: KTMA 290215Z AUTO 00000KT 10SM CLR 20/19 A3000 RMK AO2 T01970187
Conditions at: KTMA (TIFTON , GA, US) observed 0215 UTC 29 September 2021
Temperature: 19.7°C (67°F)
Dewpoint: 18.7°C (66°F) [RH = 94%]
Pressure (altimeter): 30.00 inches Hg (1016.0 mb)
Winds: calm
Visibility: 10 or more miles (16+ km)
Ceiling: at least 12,000 feet AGL
Clouds: sky clear below 12,000 feet AGL
Weather: automated observation with no human augmentation;
there may or may not be significant weather present at this time

METAR text: KTMA 290155Z AUTO 00000KT 10SM 20/19 A3001 RMK AO2 T02030188
Conditions at: KTMA (TIFTON , GA, US) observed 0155 UTC 29 September 2021
Temperature: 20.3°C (69°F)
Dewpoint: 18.8°C (66°F) [RH = 91%]
Pressure (altimeter): 30.01 inches Hg (1016.3 mb)
Winds: calm
Visibility: 10 or more miles (16+ km)
Ceiling: unknown
Clouds: missing
Weather: automated observation with no human augmentation;
there may or may not be significant weather present at this time

METAR text: KTMA 290135Z AUTO 00000KT 10SM CLR 20/19 A3001 RMK AO2 T02040189
Conditions at: KTMA (TIFTON , GA, US) observed 0135 UTC 29 September 2021
Temperature: 20.4°C (69°F)
Dewpoint: 18.9°C (66°F) [RH = 91%]
Pressure (altimeter): 30.01 inches Hg (1016.3 mb)
Winds: calm
Visibility: 10 or more miles (16+ km)
Ceiling: at least 12,000 feet AGL
Clouds: sky clear below 12,000 feet AGL
Weather: automated observation with no human augmentation;
there may or may not be significant weather present at this time